sensor_id;sensor_type;location;lat;lon;timestamp;pressure;altitude;pressure_sealevel;temperature;humidity
74722;BME280;63470;49.826;6.740;2023-07-13T00:00:46;100243.98;;;14.11;49.01
74722;BME280;63470;49.826;6.740;2023-07-13T00:03:18;100243.27;;;14.05;49.05
74722;BME280;63470;49.826;6.740;2023-07-13T00:05:57;100242.72;;;14.01;49.05
74722;BME280;63470;49.826;6.740;2023-07-13T00:08:18;100245.26;;;14.05;48.94
74722;BME280;63470;49.826;6.740;2023-07-13T00:10:51;100243.12;;;14.07;48.81
74722;BME280;63470;49.826;6.740;2023-07-13T00:13:19;100238.98;;;14.10;48.70
74722;BME280;63470;49.826;6.740;2023-07-13T00:15:50;100239.34;;;14.16;48.59
74722;BME280;63470;49.826;6.740;2023-07-13T00:18:20;100234.31;;;14.23;48.49
74722;BME280;63470;49.826;6.740;2023-07-13T00:20:51;100236.42;;;14.32;48.38
74722;BME280;63470;49.826;6.740;2023-07-13T00:23:21;100232.91;;;14.38;48.29
74722;BME280;63470;49.826;6.740;2023-07-13T00:25:52;100227.73;;;14.41;48.24
74722;BME280;63470;49.826;6.740;2023-07-13T00:28:22;100223.59;;;14.40;48.23
74722;BME280;63470;49.826;6.740;2023-07-13T00:30:53;100221.73;;;14.39;48.24
74722;BME280;63470;49.826;6.740;2023-07-13T00:33:23;100220.69;;;14.36;48.29
74722;BME280;63470;49.826;6.740;2023-07-13T00:35:55;100218.38;;;14.35;48.31
74722;BME280;63470;49.826;6.740;2023-07-13T00:38:24;100210.55;;;14.33;48.32
74722;BME280;63470;49.826;6.740;2023-07-13T00:40:55;100214.33;;;14.32;48.33
74722;BME280;63470;49.826;6.740;2023-07-13T00:43:27;100209.79;;;14.31;48.33
74722;BME280;63470;49.826;6.740;2023-07-13T00:48:32;100216.09;;;14.39;48.19
74722;BME280;63470;49.826;6.740;2023-07-13T00:50:59;100221.70;;;14.45;48.11
74722;BME280;63470;49.826;6.740;2023-07-13T00:53:28;100223.70;;;14.55;48.00
74722;BME280;63470;49.826;6.740;2023-07-13T00:55:57;100224.27;;;14.63;47.90
74722;BME280;63470;49.826;6.740;2023-07-13T00:58:27;100229.89;;;14.72;47.81
74722;BME280;63470;49.826;6.740;2023-07-13T01:00:57;100227.73;;;14.82;47.72
74722;BME280;63470;49.826;6.740;2023-07-13T01:03:28;100225.61;;;14.88;47.63
74722;BME280;63470;49.826;6.740;2023-07-13T01:05:58;100223.83;;;14.94;47.55
74722;BME280;63470;49.826;6.740;2023-07-13T01:08:29;100218.55;;;14.98;47.52
74722;BME280;63470;49.826;6.740;2023-07-13T01:11:02;100221.12;;;15.00;47.52
74722;BME280;63470;49.826;6.740;2023-07-13T01:13:31;100223.27;;;15.07;47.45
74722;BME280;63470;49.826;6.740;2023-07-13T01:16:04;100220.12;;;15.15;47.38
74722;BME280;63470;49.826;6.740;2023-07-13T01:18:31;100220.20;;;15.22;47.32
74722;BME280;63470;49.826;6.740;2023-07-13T01:21:04;100226.60;;;15.24;47.34
74722;BME280;63470;49.826;6.740;2023-07-13T01:23:33;100228.19;;;15.27;47.34
74722;BME280;63470;49.826;6.740;2023-07-13T01:26:03;100229.21;;;15.25;47.42
74722;BME280;63470;49.826;6.740;2023-07-13T01:28:38;100228.05;;;15.25;47.45
74722;BME280;63470;49.826;6.740;2023-07-13T01:31:04;100233.07;;;15.20;47.54
74722;BME280;63470;49.826;6.740;2023-07-13T01:33:36;100236.25;;;15.12;47.62
74722;BME280;63470;49.826;6.740;2023-07-13T01:36:07;100235.86;;;15.02;47.75
74722;BME280;63470;49.826;6.740;2023-07-13T01:38:36;100244.62;;;14.89;47.93
74722;BME280;63470;49.826;6.740;2023-07-13T01:41:08;100237.42;;;14.74;48.10
74722;BME280;63470;49.826;6.740;2023-07-13T01:43:37;100239.00;;;14.65;48.23
74722;BME280;63470;49.826;6.740;2023-07-13T01:46:08;100238.55;;;14.56;48.35
74722;BME280;63470;49.826;6.740;2023-07-13T01:48:38;100241.07;;;14.47;48.44
74722;BME280;63470;49.826;6.740;2023-07-13T01:51:10;100249.14;;;14.42;48.48
74722;BME280;63470;49.826;6.740;2023-07-13T01:53:39;100246.94;;;14.42;48.44
74722;BME280;63470;49.826;6.740;2023-07-13T01:56:10;100246.14;;;14.47;48.35
74722;BME280;63470;49.826;6.740;2023-07-13T01:58:40;100250.31;;;14.49;48.29
74722;BME280;63470;49.826;6.740;2023-07-13T02:01:10;100248.16;;;14.49;48.29
74722;BME280;63470;49.826;6.740;2023-07-13T02:03:41;100247.48;;;14.52;48.21
74722;BME280;63470;49.826;6.740;2023-07-13T02:06:12;100247.89;;;14.57;48.11
74722;BME280;63470;49.826;6.740;2023-07-13T02:08:43;100251.03;;;14.65;47.98
74722;BME280;63470;49.826;6.740;2023-07-13T02:11:13;100256.69;;;14.75;47.84
74722;BME280;63470;49.826;6.740;2023-07-13T02:13:43;100260.83;;;14.86;47.74
74722;BME280;63470;49.826;6.740;2023-07-13T02:16:14;100260.11;;;14.93;47.68
74722;BME280;63470;49.826;6.740;2023-07-13T02:18:44;100259.88;;;15.02;47.63
74722;BME280;63470;49.826;6.740;2023-07-13T02:21:17;100259.69;;;15.12;47.52
74722;BME280;63470;49.826;6.740;2023-07-13T02:23:45;100261.83;;;15.20;47.43
74722;BME280;63470;49.826;6.740;2023-07-13T02:26:16;100260.53;;;15.24;47.42
74722;BME280;63470;49.826;6.740;2023-07-13T02:28:46;100259.75;;;15.29;47.42
74722;BME280;63470;49.826;6.740;2023-07-13T02:31:17;100260.85;;;15.33;47.42
74722;BME280;63470;49.826;6.740;2023-07-13T02:33:47;100256.12;;;15.38;47.41
74722;BME280;63470;49.826;6.740;2023-07-13T02:36:20;100262.34;;;15.44;47.40
74722;BME280;63470;49.826;6.740;2023-07-13T02:38:49;100258.38;;;15.48;47.39
74722;BME280;63470;49.826;6.740;2023-07-13T02:41:19;100256.03;;;15.51;47.39
74722;BME280;63470;49.826;6.740;2023-07-13T02:43:49;100256.17;;;15.56;47.37
74722;BME280;63470;49.826;6.740;2023-07-13T02:46:20;100260.34;;;15.61;47.36
74722;BME280;63470;49.826;6.740;2023-07-13T02:48:53;100257.34;;;15.63;47.34
74722;BME280;63470;49.826;6.740;2023-07-13T02:51:21;100258.55;;;15.66;47.33
74722;BME280;63470;49.826;6.740;2023-07-13T02:53:54;100260.73;;;15.68;47.35
74722;BME280;63470;49.826;6.740;2023-07-13T02:56:26;100264.38;;;15.71;47.32
74722;BME280;63470;49.826;6.740;2023-07-13T02:58:55;100262.95;;;15.71;47.29
74722;BME280;63470;49.826;6.740;2023-07-13T03:01:24;100254.97;;;15.69;47.31
74722;BME280;63470;49.826;6.740;2023-07-13T03:03:56;100255.46;;;15.67;47.34
74722;BME280;63470;49.826;6.740;2023-07-13T03:06:26;100261.52;;;15.65;47.35
74722;BME280;63470;49.826;6.740;2023-07-13T03:08:56;100262.95;;;15.62;47.40
74722;BME280;63470;49.826;6.740;2023-07-13T03:11:27;100265.06;;;15.59;47.47
74722;BME280;63470;49.826;6.740;2023-07-13T03:13:57;100258.94;;;15.58;47.54
74722;BME280;63470;49.826;6.740;2023-07-13T03:16:28;100259.24;;;15.57;47.57
74722;BME280;63470;49.826;6.740;2023-07-13T03:18:58;100262.39;;;15.55;47.70
74722;BME280;63470;49.826;6.740;2023-07-13T03:21:29;100264.06;;;15.54;47.68
74722;BME280;63470;49.826;6.740;2023-07-13T03:23:59;100266.88;;;15.50;47.70
74722;BME280;63470;49.826;6.740;2023-07-13T03:26:30;100268.19;;;15.41;47.77
74722;BME280;63470;49.826;6.740;2023-07-13T03:29:00;100271.28;;;15.30;47.90
74722;BME280;63470;49.826;6.740;2023-07-13T03:31:34;100274.88;;;15.20;47.97
74722;BME280;63470;49.826;6.740;2023-07-13T03:34:07;100285.17;;;15.06;48.12
74722;BME280;63470;49.826;6.740;2023-07-13T03:36:33;100287.12;;;14.92;48.27
74722;BME280;63470;49.826;6.740;2023-07-13T03:39:03;100287.71;;;14.82;48.37
74722;BME280;63470;49.826;6.740;2023-07-13T03:41:33;100287.44;;;14.74;48.43
74722;BME280;63470;49.826;6.740;2023-07-13T03:44:03;100291.02;;;14.69;48.46
74722;BME280;63470;49.826;6.740;2023-07-13T03:46:35;100297.02;;;14.60;48.53
74722;BME280;63470;49.826;6.740;2023-07-13T03:49:06;100300.31;;;14.51;48.60
74722;BME280;63470;49.826;6.740;2023-07-13T03:51:34;100296.28;;;14.39;48.69
74722;BME280;63470;49.826;6.740;2023-07-13T03:54:05;100298.13;;;14.28;48.80
74722;BME280;63470;49.826;6.740;2023-07-13T03:56:36;100300.75;;;14.20;48.86
74722;BME280;63470;49.826;6.740;2023-07-13T03:59:06;100305.91;;;14.16;48.85
74722;BME280;63470;49.826;6.740;2023-07-13T04:01:37;100303.70;;;14.12;48.80
74722;BME280;63470;49.826;6.740;2023-07-13T04:04:07;100306.91;;;14.10;48.74
74722;BME280;63470;49.826;6.740;2023-07-13T04:06:37;100302.60;;;14.08;48.71
74722;BME280;63470;49.826;6.740;2023-07-13T04:09:09;100303.98;;;14.08;48.63
74722;BME280;63470;49.826;6.740;2023-07-13T04:11:38;100304.58;;;14.10;48.52
74722;BME280;63470;49.826;6.740;2023-07-13T04:14:12;100305.97;;;14.12;48.44
74722;BME280;63470;49.826;6.740;2023-07-13T04:16:40;100307.12;;;14.12;48.41
74722;BME280;63470;49.826;6.740;2023-07-13T04:19:10;100311.06;;;14.10;48.42
74722;BME280;63470;49.826;6.740;2023-07-13T04:21:41;100308.73;;;14.10;48.40
74722;BME280;63470;49.826;6.740;2023-07-13T04:24:11;100316.61;;;14.10;48.38
74722;BME280;63470;49.826;6.740;2023-07-13T04:26:44;100322.64;;;14.14;48.31
74722;BME280;63470;49.826;6.740;2023-07-13T04:29:13;100324.36;;;14.15;48.27
74722;BME280;63470;49.826;6.740;2023-07-13T04:31:43;100327.12;;;14.17;48.24
74722;BME280;63470;49.826;6.740;2023-07-13T04:34:14;100324.50;;;14.19;48.26
74722;BME280;63470;49.826;6.740;2023-07-13T04:36:44;100326.23;;;14.24;48.22
74722;BME280;63470;49.826;6.740;2023-07-13T04:39:15;100325.69;;;14.33;48.12
74722;BME280;63470;49.826;6.740;2023-07-13T04:41:46;100325.98;;;14.40;48.05
74722;BME280;63470;49.826;6.740;2023-07-13T04:44:16;100330.23;;;14.48;47.98
74722;BME280;63470;49.826;6.740;2023-07-13T04:46:47;100329.88;;;14.59;47.87
74722;BME280;63470;49.826;6.740;2023-07-13T04:49:17;100330.92;;;14.70;47.75
74722;BME280;63470;49.826;6.740;2023-07-13T04:51:48;100329.78;;;14.83;47.65
74722;BME280;63470;49.826;6.740;2023-07-13T04:54:18;100329.09;;;14.92;47.60
74722;BME280;63470;49.826;6.740;2023-07-13T04:56:49;100334.20;;;15.03;47.56
74722;BME280;63470;49.826;6.740;2023-07-13T04:59:19;100338.11;;;15.16;47.49
74722;BME280;63470;49.826;6.740;2023-07-13T05:01:50;100336.28;;;15.29;47.43
74722;BME280;63470;49.826;6.740;2023-07-13T05:04:23;100341.27;;;15.44;47.29
74722;BME280;63470;49.826;6.740;2023-07-13T05:06:51;100341.61;;;15.58;47.19
74722;BME280;63470;49.826;6.740;2023-07-13T05:09:22;100336.91;;;15.69;47.17
74722;BME280;63470;49.826;6.740;2023-07-13T05:11:52;100336.81;;;15.81;47.11
74722;BME280;63470;49.826;6.740;2023-07-13T05:14:23;100337.11;;;15.98;46.99
74722;BME280;63470;49.826;6.740;2023-07-13T05:16:53;100339.38;;;16.12;46.89
74722;BME280;63470;49.826;6.740;2023-07-13T05:19:24;100336.66;;;16.22;46.82
74722;BME280;63470;49.826;6.740;2023-07-13T05:21:54;100337.64;;;16.33;46.81
74722;BME280;63470;49.826;6.740;2023-07-13T05:24:25;100338.01;;;16.45;46.76
74722;BME280;63470;49.826;6.740;2023-07-13T05:26:55;100341.88;;;16.56;46.76
74722;BME280;63470;49.826;6.740;2023-07-13T05:29:26;100344.00;;;16.68;46.72
74722;BME280;63470;49.826;6.740;2023-07-13T05:31:57;100346.20;;;16.81;46.68
74722;BME280;63470;49.826;6.740;2023-07-13T05:34:27;100352.78;;;16.96;46.62
74722;BME280;63470;49.826;6.740;2023-07-13T05:36:56;100350.20;;;17.11;46.55
74722;BME280;63470;49.826;6.740;2023-07-13T05:39:28;100345.03;;;17.29;46.45
74722;BME280;63470;49.826;6.740;2023-07-13T05:41:58;100348.29;;;17.49;46.34
74722;BME280;63470;49.826;6.740;2023-07-13T05:44:33;100346.60;;;17.70;46.20
74722;BME280;63470;49.826;6.740;2023-07-13T05:46:59;100338.86;;;17.93;46.05
74722;BME280;63470;49.826;6.740;2023-07-13T05:49:31;100336.19;;;18.17;45.92
74722;BME280;63470;49.826;6.740;2023-07-13T05:52:00;100333.94;;;18.42;45.77
74722;BME280;63470;49.826;6.740;2023-07-13T05:54:31;100334.73;;;18.72;45.61
74722;BME280;63470;49.826;6.740;2023-07-13T05:57:01;100336.05;;;19.50;45.27
74722;BME280;63470;49.826;6.740;2023-07-13T05:59:32;100336.88;;;21.38;44.33
74722;BME280;63470;49.826;6.740;2023-07-13T06:02:03;100331.29;;;22.88;43.34
74722;BME280;63470;49.826;6.740;2023-07-13T06:04:33;100327.48;;;24.05;42.47
74722;BME280;63470;49.826;6.740;2023-07-13T06:07:04;100328.52;;;25.22;41.62
74722;BME280;63470;49.826;6.740;2023-07-13T06:09:33;100328.98;;;26.30;40.88
74722;BME280;63470;49.826;6.740;2023-07-13T06:12:05;100326.48;;;26.85;40.71
74722;BME280;63470;49.826;6.740;2023-07-13T06:14:34;100328.59;;;27.69;40.24
74722;BME280;63470;49.826;6.740;2023-07-13T06:17:05;100326.84;;;28.33;39.95
74722;BME280;63470;49.826;6.740;2023-07-13T06:19:36;100324.09;;;28.95;39.67
74722;BME280;63470;49.826;6.740;2023-07-13T06:22:06;100328.70;;;29.63;39.27
74722;BME280;63470;49.826;6.740;2023-07-13T06:24:37;100328.71;;;30.16;39.03
74722;BME280;63470;49.826;6.740;2023-07-13T06:27:08;100330.98;;;30.16;39.42
74722;BME280;63470;49.826;6.740;2023-07-13T06:29:38;100330.98;;;30.28;39.55
74722;BME280;63470;49.826;6.740;2023-07-13T06:32:08;100330.59;;;29.98;40.18
74722;BME280;63470;49.826;6.740;2023-07-13T06:34:39;100331.19;;;30.03;40.31
74722;BME280;63470;49.826;6.740;2023-07-13T06:37:10;100326.83;;;30.11;40.34
74722;BME280;63470;49.826;6.740;2023-07-13T06:39:40;100327.34;;;30.50;40.06
74722;BME280;63470;49.826;6.740;2023-07-13T06:42:11;100326.97;;;31.00;39.62
74722;BME280;63470;49.826;6.740;2023-07-13T06:44:41;100325.48;;;31.48;39.21
74722;BME280;63470;49.826;6.740;2023-07-13T06:47:11;100327.19;;;31.84;38.94
74722;BME280;63470;49.826;6.740;2023-07-13T06:49:42;100322.33;;;31.96;38.88
74722;BME280;63470;49.826;6.740;2023-07-13T06:52:12;100329.12;;;32.06;38.88
74722;BME280;63470;49.826;6.740;2023-07-13T06:54:43;100330.92;;;32.52;38.48
74722;BME280;63470;49.826;6.740;2023-07-13T06:57:14;100331.12;;;32.90;38.12
74722;BME280;63470;49.826;6.740;2023-07-13T06:59:44;100328.23;;;33.39;37.61
74722;BME280;63470;49.826;6.740;2023-07-13T07:02:15;100335.30;;;33.81;37.25
74722;BME280;63470;49.826;6.740;2023-07-13T07:04:46;100338.45;;;34.20;36.92
74722;BME280;63470;49.826;6.740;2023-07-13T07:07:16;100339.28;;;34.50;36.62
74722;BME280;63470;49.826;6.740;2023-07-13T07:09:46;100340.42;;;34.80;36.24
74722;BME280;63470;49.826;6.740;2023-07-13T07:12:18;100339.84;;;34.95;35.98
74722;BME280;63470;49.826;6.740;2023-07-13T07:14:47;100334.77;;;35.14;35.62
74722;BME280;63470;49.826;6.740;2023-07-13T07:17:17;100337.94;;;35.30;35.32
74722;BME280;63470;49.826;6.740;2023-07-13T07:19:48;100339.67;;;35.02;35.54
74722;BME280;63470;49.826;6.740;2023-07-13T07:22:19;100340.72;;;34.97;35.67
74722;BME280;63470;49.826;6.740;2023-07-13T07:24:49;100338.94;;;34.73;36.07
74722;BME280;63470;49.826;6.740;2023-07-13T07:27:20;100340.11;;;34.18;36.80
74722;BME280;63470;49.826;6.740;2023-07-13T07:29:51;100341.38;;;33.27;37.87
74722;BME280;63470;49.826;6.740;2023-07-13T07:32:21;100344.03;;;32.32;38.90
74722;BME280;63470;49.826;6.740;2023-07-13T07:34:52;100349.41;;;31.61;39.64
74722;BME280;63470;49.826;6.740;2023-07-13T07:37:22;100347.48;;;31.58;39.46
74722;BME280;63470;49.826;6.740;2023-07-13T07:39:53;100344.91;;;31.62;39.09
74722;BME280;63470;49.826;6.740;2023-07-13T07:42:24;100344.86;;;31.46;39.01
74722;BME280;63470;49.826;6.740;2023-07-13T07:44:54;100345.22;;;31.80;38.36
74722;BME280;63470;49.826;6.740;2023-07-13T07:47:25;100343.33;;;32.50;37.27
74722;BME280;63470;49.826;6.740;2023-07-13T07:49:56;100343.44;;;33.17;36.27
74722;BME280;63470;49.826;6.740;2023-07-13T07:52:26;100344.84;;;33.53;35.80
74722;BME280;63470;49.826;6.740;2023-07-13T07:54:57;100345.58;;;34.28;35.10
74722;BME280;63470;49.826;6.740;2023-07-13T07:57:27;100343.47;;;34.33;35.33
74722;BME280;63470;49.826;6.740;2023-07-13T07:59:58;100348.55;;;33.98;36.01
74722;BME280;63470;49.826;6.740;2023-07-13T08:02:28;100344.57;;;33.33;36.94
74722;BME280;63470;49.826;6.740;2023-07-13T08:04:58;100346.45;;;32.97;37.54
74722;BME280;63470;49.826;6.740;2023-07-13T08:07:32;100348.80;;;32.55;38.15
74722;BME280;63470;49.826;6.740;2023-07-13T08:10:00;100343.12;;;31.81;39.04
74722;BME280;63470;49.826;6.740;2023-07-13T08:12:33;100337.68;;;32.06;38.75
74722;BME280;63470;49.826;6.740;2023-07-13T08:15:01;100332.94;;;32.99;37.79
74722;BME280;63470;49.826;6.740;2023-07-13T08:17:31;100331.67;;;34.15;36.67
74722;BME280;63470;49.826;6.740;2023-07-13T08:20:01;100331.22;;;34.45;36.54
74722;BME280;63470;49.826;6.740;2023-07-13T08:22:32;100335.16;;;34.14;37.06
74722;BME280;63470;49.826;6.740;2023-07-13T08:25:03;100330.27;;;33.73;37.66
74722;BME280;63470;49.826;6.740;2023-07-13T08:27:33;100332.66;;;33.80;37.71
74722;BME280;63470;49.826;6.740;2023-07-13T08:30:06;100329.84;;;33.55;38.06
74722;BME280;63470;49.826;6.740;2023-07-13T08:32:33;100330.06;;;33.37;38.29
74722;BME280;63470;49.826;6.740;2023-07-13T08:35:05;100324.20;;;33.26;38.38
74722;BME280;63470;49.826;6.740;2023-07-13T08:37:35;100325.29;;;33.82;37.75
74722;BME280;63470;49.826;6.740;2023-07-13T08:40:08;100326.95;;;33.71;37.97
74722;BME280;63470;49.826;6.740;2023-07-13T08:42:40;100325.95;;;34.17;37.46
74722;BME280;63470;49.826;6.740;2023-07-13T08:45:39;100316.83;;;35.11;36.52
74722;BME280;63470;49.826;6.740;2023-07-13T08:47:42;100310.72;;;35.86;35.86
74722;BME280;63470;49.826;6.740;2023-07-13T08:50:14;100315.59;;;36.48;35.41
74722;BME280;63470;49.826;6.740;2023-07-13T08:52:40;100311.39;;;37.29;34.76
74722;BME280;63470;49.826;6.740;2023-07-13T08:55:14;100311.17;;;37.88;34.39
74722;BME280;63470;49.826;6.740;2023-07-13T08:57:41;100308.41;;;37.33;35.19
74722;BME280;63470;49.826;6.740;2023-07-13T09:00:10;100304.44;;;37.68;34.96
74722;BME280;63470;49.826;6.740;2023-07-13T09:02:57;100314.02;;;38.04;34.72
74722;BME280;63470;49.826;6.740;2023-07-13T09:05:22;100309.86;;;38.34;34.55
74722;BME280;63470;49.826;6.740;2023-07-13T09:07:55;100309.48;;;39.03;33.93
74722;BME280;63470;49.826;6.740;2023-07-13T09:10:17;100310.95;;;39.25;33.83
74722;BME280;63470;49.826;6.740;2023-07-13T09:15:34;100302.51;;;38.86;34.55
74722;BME280;63470;49.826;6.740;2023-07-13T09:17:48;100300.74;;;38.87;34.64
74722;BME280;63470;49.826;6.740;2023-07-13T09:20:47;100307.61;;;38.71;34.89
74722;BME280;63470;49.826;6.740;2023-07-13T09:22:44;100302.12;;;38.29;35.37
74722;BME280;63470;49.826;6.740;2023-07-13T09:25:24;100299.75;;;38.02;35.70
74722;BME280;63470;49.826;6.740;2023-07-13T09:27:46;100300.86;;;37.73;35.96
74722;BME280;63470;49.826;6.740;2023-07-13T09:30:30;100301.73;;;37.68;35.98
74722;BME280;63470;49.826;6.740;2023-07-13T09:32:50;100309.53;;;37.23;36.44
74722;BME280;63470;49.826;6.740;2023-07-13T09:35:24;100301.16;;;36.62;37.09
74722;BME280;63470;49.826;6.740;2023-07-13T09:37:46;100299.08;;;37.18;36.26
74722;BME280;63470;49.826;6.740;2023-07-13T09:42:46;100301.75;;;38.69;34.48
74722;BME280;63470;49.826;6.740;2023-07-13T09:45:26;100303.66;;;39.01;34.20
74722;BME280;63470;49.826;6.740;2023-07-13T09:47:58;100302.29;;;38.62;34.70
74722;BME280;63470;49.826;6.740;2023-07-13T09:50:19;100301.61;;;36.87;36.76
74722;BME280;63470;49.826;6.740;2023-07-13T09:52:48;100292.31;;;37.11;36.36
74722;BME280;63470;49.826;6.740;2023-07-13T09:55:29;100297.00;;;38.21;35.05
74722;BME280;63470;49.826;6.740;2023-07-13T09:57:47;100296.06;;;37.34;36.11
74722;BME280;63470;49.826;6.740;2023-07-13T10:00:23;100296.58;;;35.28;38.55
74722;BME280;63470;49.826;6.740;2023-07-13T10:03:04;100298.94;;;36.22;37.10
74722;BME280;63470;49.826;6.740;2023-07-13T10:05:25;100302.53;;;36.27;36.83
74722;BME280;63470;49.826;6.740;2023-07-13T10:07:51;100306.26;;;35.16;38.03
74722;BME280;63470;49.826;6.740;2023-07-13T10:10:25;100308.59;;;33.01;40.46
74722;BME280;63470;49.826;6.740;2023-07-13T10:12:54;100318.58;;;32.11;41.30
74722;BME280;63470;49.826;6.740;2023-07-13T10:15:24;100314.91;;;33.11;39.62
74722;BME280;63470;49.826;6.740;2023-07-13T10:17:55;100321.35;;;33.47;38.98
74722;BME280;63470;49.826;6.740;2023-07-13T10:20:25;100317.55;;;32.03;40.59
74722;BME280;63470;49.826;6.740;2023-07-13T10:23:00;100335.67;;;30.64;42.05
74722;BME280;63470;49.826;6.740;2023-07-13T10:25:31;100332.29;;;29.36;43.38
74722;BME280;63470;49.826;6.740;2023-07-13T10:28:03;100328.22;;;28.38;44.23
74722;BME280;63470;49.826;6.740;2023-07-13T10:30:32;100330.14;;;27.78;44.52
74722;BME280;63470;49.826;6.740;2023-07-13T10:33:00;100331.84;;;28.10;43.62
74722;BME280;63470;49.826;6.740;2023-07-13T10:35:29;100334.70;;;28.25;43.10
74722;BME280;63470;49.826;6.740;2023-07-13T10:38:06;100334.59;;;27.96;43.17
74722;BME280;63470;49.826;6.740;2023-07-13T10:40:35;100337.94;;;27.60;43.39
74722;BME280;63470;49.826;6.740;2023-07-13T10:43:02;100340.00;;;27.13;43.69
74722;BME280;63470;49.826;6.740;2023-07-13T10:45:34;100339.91;;;26.67;43.94
74722;BME280;63470;49.826;6.740;2023-07-13T10:48:04;100339.42;;;26.68;43.70
74722;BME280;63470;49.826;6.740;2023-07-13T10:50:38;100345.48;;;26.83;43.37
74722;BME280;63470;49.826;6.740;2023-07-13T10:53:20;100342.94;;;26.77;43.24
74722;BME280;63470;49.826;6.740;2023-07-13T10:55:37;100346.05;;;26.52;43.31
74722;BME280;63470;49.826;6.740;2023-07-13T11:00:31;100343.28;;;26.54;42.94
74722;BME280;63470;49.826;6.740;2023-07-13T11:03:02;100344.64;;;26.66;42.71
74722;BME280;63470;49.826;6.740;2023-07-13T11:05:33;100338.36;;;26.62;42.67
74722;BME280;63470;49.826;6.740;2023-07-13T11:08:19;100336.08;;;26.87;42.30
74722;BME280;63470;49.826;6.740;2023-07-13T11:10:54;100342.35;;;26.90;42.18
74722;BME280;63470;49.826;6.740;2023-07-13T11:13:04;100346.93;;;26.75;42.32
74722;BME280;63470;49.826;6.740;2023-07-13T11:15:45;100346.44;;;26.69;42.33
74722;BME280;63470;49.826;6.740;2023-07-13T11:18:19;100351.80;;;26.88;42.04
74722;BME280;63470;49.826;6.740;2023-07-13T11:20:41;100353.99;;;27.05;41.75
74722;BME280;63470;49.826;6.740;2023-07-13T11:25:39;100344.97;;;28.10;40.58
74722;BME280;63470;49.826;6.740;2023-07-13T11:30:43;100338.11;;;28.35;40.37
74722;BME280;63470;49.826;6.740;2023-07-13T11:33:17;100341.27;;;27.90;40.92
74722;BME280;63470;49.826;6.740;2023-07-13T11:35:50;100345.66;;;27.48;41.43
74722;BME280;63470;49.826;6.740;2023-07-13T11:38:15;100347.25;;;27.35;41.56
74722;BME280;63470;49.826;6.740;2023-07-13T11:40:41;100341.23;;;27.74;41.07
74722;BME280;63470;49.826;6.740;2023-07-13T11:43:15;100331.72;;;28.12;40.59
74722;BME280;63470;49.826;6.740;2023-07-13T11:45:43;100341.12;;;28.29;40.39
74722;BME280;63470;49.826;6.740;2023-07-13T11:48:21;100337.59;;;28.21;40.51
74722;BME280;63470;49.826;6.740;2023-07-13T11:50:50;100339.50;;;28.20;40.58
74722;BME280;63470;49.826;6.740;2023-07-13T11:53:14;100337.81;;;28.18;40.62
74722;BME280;63470;49.826;6.740;2023-07-13T11:55:47;100335.20;;;28.17;40.67
74722;BME280;63470;49.826;6.740;2023-07-13T11:58:22;100334.87;;;28.58;40.26
74722;BME280;63470;49.826;6.740;2023-07-13T12:00:48;100345.87;;;28.93;39.89
74722;BME280;63470;49.826;6.740;2023-07-13T12:03:20;100346.80;;;28.91;39.94
74722;BME280;63470;49.826;6.740;2023-07-13T12:06:02;100342.49;;;28.98;39.95
74722;BME280;63470;49.826;6.740;2023-07-13T12:08:25;100340.07;;;29.25;39.71
74722;BME280;63470;49.826;6.740;2023-07-13T12:10:56;100343.16;;;29.41;39.60
74722;BME280;63470;49.826;6.740;2023-07-13T12:13:19;100343.73;;;29.38;39.69
74722;BME280;63470;49.826;6.740;2023-07-13T12:15:49;100341.48;;;29.23;39.90
74722;BME280;63470;49.826;6.740;2023-07-13T12:18:22;100344.70;;;28.82;40.38
74722;BME280;63470;49.826;6.740;2023-07-13T12:20:51;100343.29;;;28.39;40.84
74722;BME280;63470;49.826;6.740;2023-07-13T12:23:28;100342.42;;;28.20;41.05
74722;BME280;63470;49.826;6.740;2023-07-13T12:25:52;100344.89;;;28.23;40.99
74722;BME280;63470;49.826;6.740;2023-07-13T12:28:36;100345.39;;;28.39;40.74
74722;BME280;63470;49.826;6.740;2023-07-13T12:30:57;100346.98;;;28.49;40.64
74722;BME280;63470;49.826;6.740;2023-07-13T12:33:26;100341.52;;;28.40;40.69
74722;BME280;63470;49.826;6.740;2023-07-13T12:35:55;100350.20;;;28.18;40.92
74722;BME280;63470;49.826;6.740;2023-07-13T12:38:25;100354.38;;;28.11;40.99
74722;BME280;63470;49.826;6.740;2023-07-13T12:40:55;100359.11;;;28.06;40.98
74722;BME280;63470;49.826;6.740;2023-07-13T12:43:26;100349.77;;;28.17;40.85
74722;BME280;63470;49.826;6.740;2023-07-13T12:46:03;100347.69;;;28.36;40.70
74722;BME280;63470;49.826;6.740;2023-07-13T12:48:27;100347.66;;;28.55;40.52
74722;BME280;63470;49.826;6.740;2023-07-13T12:51:00;100356.28;;;28.74;40.34
74722;BME280;63470;49.826;6.740;2023-07-13T12:53:30;100361.54;;;28.81;40.27
74722;BME280;63470;49.826;6.740;2023-07-13T12:56:02;100359.62;;;28.60;40.44
74722;BME280;63470;49.826;6.740;2023-07-13T12:58:35;100363.52;;;28.24;40.84
74722;BME280;63470;49.826;6.740;2023-07-13T13:01:01;100368.48;;;27.73;41.38
74722;BME280;63470;49.826;6.740;2023-07-13T13:03:39;100371.97;;;27.19;41.89
74722;BME280;63470;49.826;6.740;2023-07-13T13:06:06;100369.88;;;26.67;42.35
74722;BME280;63470;49.826;6.740;2023-07-13T13:08:32;100376.59;;;26.33;42.63
74722;BME280;63470;49.826;6.740;2023-07-13T13:11:01;100376.10;;;26.30;42.53
74722;BME280;63470;49.826;6.740;2023-07-13T13:13:31;100373.16;;;26.47;42.20
74722;BME280;63470;49.826;6.740;2023-07-13T13:18:33;100372.27;;;26.62;41.78
74722;BME280;63470;49.826;6.740;2023-07-13T13:21:03;100378.80;;;26.70;41.63
74722;BME280;63470;49.826;6.740;2023-07-13T13:23:34;100376.74;;;26.65;41.64